Time;durP1;ratioP1;P1;durP2;ratioP2;P2;SDS_P1;SDS_P2;PMS_P1;PMS_P2;Temp;Humidity;BMP_temperature;BMP_pressure;BME280_temperature;BME280_humidity;BME280_pressure;Samples;Min_cycle;Max_cycle;Signal;HPM_P1;HPM_P2
2024/01/16 00:01:54;;;;;;;6.05;3.28;;;18.80;80.10;;;;;;5135658;27;20469;-65
2024/01/16 00:04:20;;;;;;;5.57;3.17;;;18.90;78.80;;;;;;5121805;27;20541;-65
2024/01/16 00:06:46;;;;;;;5.47;3.00;;;;;;;;;;5120356;27;20051;-66
2024/01/16 00:09:12;;;;;;;5.10;2.67;;;18.90;80.80;;;;;;5137366;27;20047;-64
2024/01/16 00:11:41;;;;;;;5.15;2.60;;;18.80;80.70;;;;;;5137790;27;20060;-64
2024/01/16 00:14:07;;;;;;;5.15;2.42;;;18.80;80.40;;;;;;5091614;27;20047;-64
2024/01/16 00:16:33;;;;;;;5.63;2.40;;;18.70;80.60;;;;;;5116757;27;20039;-65
2024/01/16 00:18:59;;;;;;;4.65;2.30;;;;;;;;;;5116883;27;20126;-64
2024/01/16 00:21:24;;;;;;;4.20;2.20;;;18.70;80.50;;;;;;5134830;27;20122;-65
2024/01/16 00:23:51;;;;;;;5.88;2.00;;;;;;;;;;5116307;27;20606;-64
2024/01/16 00:26:23;;;;;;;4.63;2.08;;;18.50;76.10;;;;;;5118748;27;20043;-64
2024/01/16 00:28:49;;;;;;;3.60;2.13;;;18.50;79.80;;;;;;5116801;27;20046;-64
2024/01/16 00:31:15;;;;;;;4.63;2.00;;;18.40;80.60;;;;;;5106055;27;20041;-65
2024/01/16 00:33:40;;;;;;;5.00;2.00;;;18.20;80.60;;;;;;5134565;27;20062;-64
2024/01/16 00:36:06;;;;;;;8.30;1.80;;;;;;;;;;5113155;28;20067;-65
2024/01/16 00:38:35;;;;;;;4.05;1.80;;;17.90;80.80;;;;;;5132333;27;20055;-64
2024/01/16 00:41:01;;;;;;;3.72;1.80;;;17.80;80.90;;;;;;5099405;27;20051;-64
2024/01/16 00:43:27;;;;;;;4.20;1.90;;;;;;;;;;5117094;27;20039;-63
2024/01/16 00:45:53;;;;;;;3.65;1.70;;;;;;;;;;5099705;27;20054;-64
2024/01/16 00:48:20;;;;;;;4.38;1.90;;;;;;;;;;5123612;27;20083;-65
2024/01/16 00:50:49;;;;;;;3.90;1.85;;;17.50;81.50;;;;;;5124798;27;20050;-64
2024/01/16 00:53:16;;;;;;;4.55;1.95;;;17.40;80.60;;;;;;5116547;27;20078;-64
2024/01/16 00:55:41;;;;;;;4.55;2.17;;;17.20;81.70;;;;;;5135414;27;20114;-64
2024/01/16 00:58:08;;;;;;;3.72;1.77;;;;;;;;;;5134429;27;20118;-64
2024/01/16 01:00:35;;;;;;;4.13;1.65;;;;;;;;;;5134795;27;20093;-64
2024/01/16 01:03:03;;;;;;;3.83;1.52;;;;;;;;;;5116512;27;20055;-64
2024/01/16 01:05:29;;;;;;;4.07;1.65;;;;;;;;;;5132464;27;20046;-63
2024/01/16 01:07:56;;;;;;;4.88;1.70;;;;;;;;;;5146659;27;20043;-64
2024/01/16 01:10:22;;;;;;;4.10;1.58;;;16.90;82.00;;;;;;5116356;27;20366;-63
2024/01/16 01:12:48;;;;;;;4.65;1.50;;;16.80;81.90;;;;;;5134421;27;20050;-64
2024/01/16 01:15:14;;;;;;;4.00;1.60;;;;;;;;;;5134513;27;20046;-64
2024/01/16 01:17:40;;;;;;;2.92;1.52;;;16.90;81.80;;;;;;5116116;27;20050;-64
2024/01/16 01:20:07;;;;;;;4.22;1.58;;;16.80;81.90;;;;;;5133658;27;20047;-64
2024/01/16 01:22:34;;;;;;;3.95;1.55;;;;;;;;;;5102589;28;20051;-64
2024/01/16 01:25:00;;;;;;;3.58;1.40;;;;;;;;;;5098820;27;20407;-64
2024/01/16 01:27:26;;;;;;;5.15;1.40;;;16.70;82.30;;;;;;5119233;27;20552;-64
2024/01/16 01:29:51;;;;;;;3.88;1.40;;;16.50;82.30;;;;;;5155231;27;20031;-63
2024/01/16 01:32:17;;;;;;;3.03;1.30;;;16.40;82.40;;;;;;5153419;27;20506;-63
2024/01/16 01:34:43;;;;;;;4.28;1.50;;;16.30;82.50;;;;;;5115949;27;20491;-64
2024/01/16 01:37:09;;;;;;;4.05;1.80;;;;;;;;;;5153715;27;20043;-64
2024/01/16 01:39:35;;;;;;;3.60;1.30;;;16.20;80.00;;;;;;5110549;27;20047;-65
2024/01/16 01:42:00;;;;;;;3.05;1.30;;;16.30;82.90;;;;;;5113522;28;20084;-64
2024/01/16 01:44:26;;;;;;;4.35;1.40;;;16.20;83.00;;;;;;5105758;27;20500;-64
2024/01/16 01:46:54;;;;;;;3.08;1.30;;;16.30;80.40;;;;;;5115543;27;20082;-64
2024/01/16 01:49:20;;;;;;;4.20;1.50;;;;;;;;;;5097825;27;20089;-65
2024/01/16 01:51:46;;;;;;;4.07;1.50;;;;;;;;;;5115319;27;20047;-64
2024/01/16 01:54:12;;;;;;;3.80;1.30;;;15.90;79.90;;;;;;5116031;27;20354;-64
2024/01/16 01:56:39;;;;;;;2.67;1.20;;;;;;;;;;5111036;27;20180;-64
2024/01/16 01:59:05;;;;;;;3.22;1.40;;;;;;;;;;5115413;27;20075;-64
2024/01/16 02:01:31;;;;;;;3.88;1.25;;;;;;;;;;5133838;27;20373;-63
2024/01/16 02:03:57;;;;;;;4.03;1.20;;;;;;;;;;5098499;27;20055;-65
2024/01/16 02:06:24;;;;;;;3.92;1.40;;;;;;;;;;5133786;27;20039;-65
2024/01/16 02:08:50;;;;;;;4.22;1.30;;;;;;;;;;5133460;27;20039;-65
2024/01/16 02:11:16;;;;;;;3.33;1.30;;;;;;;;;;5133906;27;20516;-66
2024/01/16 02:13:42;;;;;;;3.35;1.20;;;15.50;80.90;;;;;;5135298;27;20122;-64
2024/01/16 02:16:20;;;;;;;5.47;1.45;;;15.50;81.50;;;;;;5154056;27;20078;-64
2024/01/16 02:18:46;;;;;;;4.82;1.27;;;15.40;81.90;;;;;;5112575;28;20123;-65
2024/01/16 02:21:12;;;;;;;3.78;1.23;;;15.20;84.10;;;;;;5094162;28;20466;-64
2024/01/16 02:23:38;;;;;;;2.55;1.00;;;;;;;;;;5103164;27;20126;-65
2024/01/16 02:26:04;;;;;;;3.35;1.10;;;15.30;84.30;;;;;;5148439;27;20042;-65
2024/01/16 02:28:30;;;;;;;4.07;1.30;;;15.20;84.40;;;;;;5135221;27;20047;-64
2024/01/16 02:30:56;;;;;;;2.42;0.90;;;;;;;;;;5124336;27;20457;-65
2024/01/16 02:33:22;;;;;;;4.28;1.20;;;15.20;84.50;;;;;;5133185;27;20043;-64
2024/01/16 02:35:48;;;;;;;3.53;1.10;;;15.10;84.40;;;;;;5135012;27;20189;-65
2024/01/16 02:38:14;;;;;;;3.33;1.35;;;14.90;84.40;;;;;;5134742;27;20049;-65
2024/01/16 02:40:40;;;;;;;4.45;1.38;;;15.00;84.50;;;;;;5153434;27;20055;-64
2024/01/16 02:43:06;;;;;;;5.00;1.20;;;14.80;80.80;;;;;;5125484;28;20047;-65
2024/01/16 02:45:32;;;;;;;2.65;0.95;;;;;;;;;;5109177;27;20058;-68
2024/01/16 02:47:58;;;;;;;4.20;1.25;;;14.90;84.60;;;;;;5119822;27;20044;-64
2024/01/16 02:50:24;;;;;;;3.42;1.05;;;;;;;;;;5077223;28;20052;-64
2024/01/16 02:52:50;;;;;;;4.30;1.50;;;14.90;84.70;;;;;;5112660;28;20096;-64
2024/01/16 02:55:16;;;;;;;3.40;1.20;;;;;;;;;;5082676;28;20057;-65
2024/01/16 02:57:42;;;;;;;2.80;0.85;;;14.80;84.80;;;;;;5128564;27;20043;-64
2024/01/16 03:00:08;;;;;;;3.20;1.17;;;;;;;;;;5132912;27;20050;-64
2024/01/16 03:02:34;;;;;;;3.63;1.30;;;14.50;84.70;;;;;;5136579;27;20051;-64
2024/01/16 03:05:00;;;;;;;2.88;0.90;;;14.50;84.60;;;;;;5119685;27;20159;-64
2024/01/16 03:07:26;;;;;;;5.25;1.42;;;;;;;;;;5112417;27;20049;-64
2024/01/16 03:09:51;;;;;;;4.32;1.25;;;14.50;81.70;;;;;;5102503;28;20062;-64
2024/01/16 03:12:18;;;;;;;3.55;1.23;;;;;;;;;;5097553;28;20031;-64
2024/01/16 03:14:43;;;;;;;4.00;1.13;;;14.50;83.60;;;;;;5097536;28;20055;-64
2024/01/16 03:17:09;;;;;;;4.50;1.30;;;14.50;84.80;;;;;;5122511;27;20035;-64
2024/01/16 03:19:35;;;;;;;4.32;1.13;;;14.40;84.80;;;;;;5135751;27;20035;-64
2024/01/16 03:22:01;;;;;;;3.42;1.02;;;14.50;84.90;;;;;;5135544;27;20050;-64
2024/01/16 03:24:27;;;;;;;3.95;1.08;;;;;;;;;;5117849;27;20046;-64
2024/01/16 03:26:53;;;;;;;2.33;0.95;;;;;;;;;;5136084;27;20100;-64
2024/01/16 03:29:19;;;;;;;2.05;0.70;;;14.40;82.50;;;;;;5156857;27;20046;-65
2024/01/16 03:31:45;;;;;;;3.75;1.05;;;14.30;85.00;;;;;;5155808;27;20372;-66
2024/01/16 03:34:11;;;;;;;2.75;0.90;;;;;;;;;;5121005;27;20093;-64
2024/01/16 03:36:37;;;;;;;4.72;1.25;;;;;;;;;;5156953;27;20046;-64
2024/01/16 03:39:03;;;;;;;3.17;1.00;;;14.30;85.10;;;;;;5120261;27;20078;-64
2024/01/16 03:41:29;;;;;;;2.85;0.80;;;;;;;;;;5120359;27;20107;-64
2024/01/16 03:43:56;;;;;;;3.55;1.05;;;;;;;;;;5138212;27;20091;-66
2024/01/16 03:46:22;;;;;;;1.90;0.70;;;;;;;;;;5105457;27;20464;-66
2024/01/16 03:48:48;;;;;;;3.40;1.00;;;14.10;85.20;;;;;;5126735;27;20043;-64
2024/01/16 03:51:19;;;;;;;2.92;1.20;;;;;;;;;;5100603;27;20104;-63
2024/01/16 03:53:45;;;;;;;2.47;0.80;;;14.10;85.20;;;;;;5136432;27;20047;-64
2024/01/16 03:56:11;;;;;;;3.58;1.00;;;14.10;85.20;;;;;;5117414;27;20039;-64
2024/01/16 03:58:38;;;;;;;3.00;0.90;;;14.10;81.50;;;;;;5142963;27;20129;-64
2024/01/16 04:01:03;;;;;;;4.45;1.10;;;14.00;85.20;;;;;;5120711;27;20051;-63
2024/01/16 04:03:29;;;;;;;4.00;1.00;;;14.00;85.20;;;;;;5121161;27;20102;-63
2024/01/16 04:05:55;;;;;;;3.42;1.00;;;;;;;;;;5156662;27;20046;-66
2024/01/16 04:08:21;;;;;;;3.83;1.15;;;13.90;85.20;;;;;;5151477;27;20043;-64
2024/01/16 04:10:47;;;;;;;4.40;1.40;;;14.00;85.30;;;;;;5125611;27;20146;-64
2024/01/16 04:13:13;;;;;;;4.15;1.00;;;;;;;;;;5137488;27;20039;-65
2024/01/16 04:15:39;;;;;;;3.13;0.90;;;;;;;;;;5138529;27;20074;-63
2024/01/16 04:18:06;;;;;;;2.78;0.90;;;;;;;;;;5103938;27;20064;-65
2024/01/16 04:20:32;;;;;;;2.97;0.90;;;13.80;85.30;;;;;;5136124;27;20059;-63
2024/01/16 04:22:58;;;;;;;3.03;0.88;;;;;;;;;;5135865;27;20100;-64
2024/01/16 04:25:24;;;;;;;2.97;1.20;;;;;;;;;;5116972;27;20111;-64
2024/01/16 04:27:50;;;;;;;3.05;1.02;;;13.70;85.30;;;;;;5139581;27;20147;-65
2024/01/16 04:30:16;;;;;;;4.55;1.15;;;;;;;;;;5118218;27;20051;-65
2024/01/16 04:32:42;;;;;;;4.47;1.10;;;13.80;85.40;;;;;;5137198;27;20082;-65
2024/01/16 04:35:08;;;;;;;3.53;1.10;;;13.60;82.10;;;;;;5148436;27;20070;-64
2024/01/16 04:37:34;;;;;;;6.25;1.02;;;13.70;85.30;;;;;;5116444;27;20047;-64
2024/01/16 04:40:00;;;;;;;4.97;1.23;;;13.60;85.30;;;;;;5115850;27;20134;-64
2024/01/16 04:42:26;;;;;;;4.85;1.52;;;13.60;85.30;;;;;;5134718;27;20035;-64
2024/01/16 04:44:52;;;;;;;4.05;1.30;;;;;;;;;;5116778;27;20451;-64
2024/01/16 04:47:18;;;;;;;6.10;1.30;;;;;;;;;;5137649;27;20082;-64
2024/01/16 04:49:44;;;;;;;3.72;1.38;;;13.50;85.30;;;;;;5129142;27;20066;-64
2024/01/16 04:52:10;;;;;;;5.00;1.33;;;13.50;85.30;;;;;;5099360;27;20492;-65
2024/01/16 04:54:36;;;;;;;2.95;0.90;;;;;;;;;;5116266;27;20138;-65
2024/01/16 04:57:04;;;;;;;3.22;1.10;;;;;;;;;;5115961;27;20438;-64
2024/01/16 04:59:30;;;;;;;5.15;1.33;;;13.40;85.40;;;;;;5096652;27;20058;-64
2024/01/16 05:01:56;;;;;;;3.33;0.90;;;13.50;85.40;;;;;;5116781;27;20079;-64
2024/01/16 05:04:22;;;;;;;4.57;1.38;;;13.60;85.50;;;;;;5114375;27;20075;-64
2024/01/16 05:06:51;;;;;;;3.50;1.00;;;;;;;;;;5079076;28;20118;-64
2024/01/16 05:09:19;;;;;;;3.35;1.00;;;;;;;;;;5115656;27;20382;-64
2024/01/16 05:11:45;;;;;;;4.00;0.90;;;13.40;85.50;;;;;;5119252;27;20074;-65
2024/01/16 05:14:11;;;;;;;2.25;0.90;;;;;;;;;;5152687;27;20057;-65
2024/01/16 05:16:38;;;;;;;4.78;1.27;;;;;;;;;;5136223;27;20074;-65
2024/01/16 05:19:03;;;;;;;2.85;1.08;;;13.40;85.50;;;;;;5135611;27;20082;-64
2024/01/16 05:21:29;;;;;;;3.42;1.00;;;13.30;83.00;;;;;;5134503;27;20441;-64
2024/01/16 05:23:56;;;;;;;3.05;0.95;;;13.40;85.60;;;;;;5115165;27;20133;-64
2024/01/16 05:26:22;;;;;;;3.67;1.13;;;;;;;;;;5115592;27;20373;-64
2024/01/16 05:28:48;;;;;;;3.28;1.30;;;13.20;85.50;;;;;;5117025;27;20053;-64
2024/01/16 05:31:14;;;;;;;3.75;1.25;;;;;;;;;;5134580;27;20051;-65
2024/01/16 05:33:40;;;;;;;4.68;1.40;;;13.30;85.20;;;;;;5134010;27;20150;-65
2024/01/16 05:36:06;;;;;;;4.15;1.05;;;13.20;85.60;;;;;;5133035;27;20550;-64
2024/01/16 05:38:32;;;;;;;5.50;1.52;;;13.30;85.70;;;;;;5133886;27;20043;-65
2024/01/16 05:40:57;;;;;;;4.50;1.45;;;13.20;85.80;;;;;;5119038;27;20445;-65
2024/01/16 05:43:23;;;;;;;5.63;1.25;;;13.40;85.80;;;;;;5141112;27;20062;-71
2024/01/16 05:45:50;;;;;;;6.22;1.42;;;;;;;;;;5098161;27;20400;-64
2024/01/16 05:48:16;;;;;;;4.95;1.52;;;13.20;85.70;;;;;;5115614;27;20119;-64
2024/01/16 05:50:42;;;;;;;5.18;1.25;;;13.30;85.80;;;;;;5095201;28;20047;-64
2024/01/16 05:53:08;;;;;;;5.53;1.70;;;13.00;85.60;;;;;;5096065;27;20394;-64
2024/01/16 05:55:36;;;;;;;3.83;1.25;;;;;;;;;;5135237;27;20404;-64
2024/01/16 05:58:02;;;;;;;4.38;1.20;;;13.00;85.70;;;;;;5135836;27;20044;-64
2024/01/16 06:00:28;;;;;;;4.50;1.35;;;13.20;85.80;;;;;;5135555;27;20503;-64
2024/01/16 06:02:54;;;;;;;5.07;1.50;;;;;;;;;;5143040;27;20468;-63
2024/01/16 06:05:20;;;;;;;4.63;1.60;;;;;;;;;;5135697;27;20051;-65
2024/01/16 06:07:46;;;;;;;6.25;1.50;;;;;;;;;;5130259;27;20112;-66
2024/01/16 06:10:16;;;;;;;5.53;1.30;;;;;;;;;;5113735;27;20035;-64
2024/01/16 06:12:42;;;;;;;4.43;1.40;;;13.00;85.60;;;;;;5112388;28;20047;-63
2024/01/16 06:15:09;;;;;;;4.78;1.55;;;13.00;84.10;;;;;;5094455;28;20071;-64
2024/01/16 06:17:35;;;;;;;4.82;1.40;;;;;;;;;;5116324;27;20122;-64
2024/01/16 06:20:01;;;;;;;5.18;1.23;;;;;;;;;;5132651;27;20104;-66
2024/01/16 06:22:27;;;;;;;4.20;1.23;;;13.00;85.70;;;;;;5114406;28;20111;-63
2024/01/16 06:24:53;;;;;;;4.88;1.50;;;13.10;85.80;;;;;;5099198;27;20042;-65
2024/01/16 06:27:19;;;;;;;3.78;1.17;;;;;;;;;;5114801;28;20044;-63
2024/01/16 06:29:46;;;;;;;4.35;1.30;;;;;;;;;;5133777;27;20035;-63
2024/01/16 06:32:12;;;;;;;5.15;1.65;;;12.90;85.60;;;;;;5107899;28;20443;-63
2024/01/16 06:34:37;;;;;;;4.93;1.52;;;12.80;85.60;;;;;;5095066;28;20036;-63
2024/01/16 06:37:03;;;;;;;5.07;1.40;;;13.10;85.80;;;;;;5116495;28;20485;-64
2024/01/16 06:39:29;;;;;;;4.88;1.70;;;13.00;85.70;;;;;;5128370;27;20099;-63
2024/01/16 06:41:55;;;;;;;4.50;1.33;;;;;;;;;;5137201;27;20047;-63
2024/01/16 06:44:21;;;;;;;5.22;1.30;;;;;;;;;;5116309;27;20047;-64
2024/01/16 06:46:47;;;;;;;4.15;1.50;;;13.00;85.80;;;;;;5081437;28;20407;-64
2024/01/16 06:49:13;;;;;;;5.65;1.52;;;12.90;85.70;;;;;;5078653;27;20047;-65
2024/01/16 06:51:39;;;;;;;2.63;1.17;;;13.00;85.70;;;;;;5101413;27;20055;-66
2024/01/16 06:54:05;;;;;;;6.80;1.45;;;;;;;;;;5118233;27;20046;-66
2024/01/16 06:56:32;;;;;;;5.55;1.40;;;;;;;;;;5136510;27;20047;-65
2024/01/16 06:58:58;;;;;;;4.05;1.05;;;12.90;85.50;;;;;;5120374;27;20043;-67
2024/01/16 07:01:24;;;;;;;5.25;1.52;;;13.00;85.90;;;;;;5132608;27;20047;-66
2024/01/16 07:03:49;;;;;;;4.57;1.42;;;12.80;85.50;;;;;;5115930;27;20043;-64
2024/01/16 07:06:16;;;;;;;3.95;1.17;;;;;;;;;;5134219;27;20078;-66
2024/01/16 07:08:41;;;;;;;4.43;1.40;;;12.80;85.80;;;;;;5138871;27;20126;-65
2024/01/16 07:11:12;;;;;;;3.65;1.20;;;;;;;;;;5136936;27;20543;-63
2024/01/16 07:13:38;;;;;;;4.03;1.30;;;;;;;;;;5157125;27;20051;-67
2024/01/16 07:16:04;;;;;;;5.53;1.50;;;12.70;85.70;;;;;;5138668;27;20387;-65
2024/01/16 07:18:30;;;;;;;4.38;1.42;;;;;;;;;;5129213;27;20051;-64
2024/01/16 07:20:57;;;;;;;5.50;1.67;;;;;;;;;;5112652;27;20074;-65
2024/01/16 07:23:23;;;;;;;5.57;1.65;;;13.00;86.00;;;;;;5136118;27;20058;-63
2024/01/16 07:25:49;;;;;;;3.88;1.50;;;;;;;;;;5135917;27;20493;-70
2024/01/16 07:28:14;;;;;;;4.88;1.30;;;12.70;85.80;;;;;;5117659;27;20043;-64
2024/01/16 07:30:40;;;;;;;5.43;1.40;;;12.70;85.90;;;;;;5118059;27;20043;-64
2024/01/16 07:33:06;;;;;;;4.80;1.20;;;;;;;;;;5136287;27;20039;-68
2024/01/16 07:35:33;;;;;;;5.10;1.33;;;12.70;86.10;;;;;;5131595;27;20088;-64
2024/01/16 07:37:59;;;;;;;3.88;1.35;;;;;;;;;;5115492;28;20058;-64
2024/01/16 07:40:25;;;;;;;3.40;1.30;;;;;;;;;;5090240;27;20050;-63
2024/01/16 07:42:52;;;;;;;4.63;1.42;;;;;;;;;;5123031;27;20119;-64
2024/01/16 07:45:19;;;;;;;4.00;1.20;;;12.70;86.40;;;;;;5083823;27;20412;-63
2024/01/16 07:47:45;;;;;;;4.68;1.35;;;;;;;;;;5116758;27;20108;-63
2024/01/16 07:50:11;;;;;;;4.63;1.40;;;12.80;86.40;;;;;;5143309;27;20050;-64
2024/01/16 07:52:37;;;;;;;4.53;1.40;;;;;;;;;;5149970;27;20046;-63
2024/01/16 07:55:03;;;;;;;6.60;1.45;;;12.70;86.30;;;;;;5147855;27;20410;-65
2024/01/16 07:57:29;;;;;;;5.85;1.45;;;12.60;86.20;;;;;;5156102;27;20480;-63
2024/01/16 07:59:55;;;;;;;5.10;1.40;;;;;;;;;;5136735;27;20095;-64
2024/01/16 08:02:21;;;;;;;5.53;1.55;;;12.80;86.40;;;;;;5137564;27;20042;-64
2024/01/16 08:04:48;;;;;;;4.60;1.23;;;;;;;;;;5120615;27;20074;-63
2024/01/16 08:07:14;;;;;;;4.35;1.30;;;12.60;86.30;;;;;;5120380;27;20143;-63
2024/01/16 08:09:40;;;;;;;5.43;1.50;;;;;;;;;;5145939;27;20126;-64
2024/01/16 08:12:07;;;;;;;3.95;1.30;;;12.60;86.30;;;;;;5135832;27;20127;-63
2024/01/16 08:14:33;;;;;;;5.38;1.52;;;12.70;86.30;;;;;;5117338;27;20050;-62
2024/01/16 08:16:59;;;;;;;6.55;1.38;;;12.50;86.20;;;;;;5135747;27;20499;-63
2024/01/16 08:19:25;;;;;;;4.00;1.35;;;12.70;86.40;;;;;;5124223;27;20133;-63
2024/01/16 08:21:51;;;;;;;4.72;1.13;;;12.70;86.40;;;;;;5155695;27;20042;-63
2024/01/16 08:24:17;;;;;;;4.63;1.42;;;12.60;86.30;;;;;;5137483;27;20103;-63
2024/01/16 08:26:43;;;;;;;8.25;1.65;;;12.70;83.90;;;;;;5137527;27;20430;-63
2024/01/16 08:29:09;;;;;;;4.43;1.15;;;12.60;86.20;;;;;;5125126;27;20047;-64
2024/01/16 08:31:35;;;;;;;5.78;1.58;;;12.70;86.30;;;;;;5138973;27;20122;-64
2024/01/16 08:34:00;;;;;;;4.25;1.17;;;12.60;86.30;;;;;;5134749;27;20105;-63
2024/01/16 08:36:27;;;;;;;4.50;1.30;;;;;;;;;;5134725;27;20509;-64
2024/01/16 08:38:54;;;;;;;3.60;1.05;;;;;;;;;;5115173;27;20102;-64
2024/01/16 08:41:20;;;;;;;8.43;1.67;;;12.50;86.20;;;;;;5145131;27;20054;-63
2024/01/16 08:43:46;;;;;;;4.70;1.35;;;;;;;;;;5117599;27;20388;-67
2024/01/16 08:46:12;;;;;;;3.78;1.20;;;12.60;85.50;;;;;;5116149;27;20047;-64
2024/01/16 08:48:40;;;;;;;5.55;1.30;;;;;;;;;;5116438;27;20035;-71
2024/01/16 08:51:07;;;;;;;4.50;1.38;;;;;;;;;;5116246;27;20080;-64
2024/01/16 08:53:34;;;;;;;4.97;1.38;;;12.50;84.90;;;;;;5135011;27;20040;-65
2024/01/16 08:56:00;;;;;;;4.80;1.35;;;;;;;;;;5131224;27;20086;-65
2024/01/16 08:58:26;;;;;;;6.10;1.95;;;12.50;86.30;;;;;;5154217;27;20425;-64
2024/01/16 09:00:52;;;;;;;8.52;1.40;;;;;;;;;;5142299;27;20135;-65
2024/01/16 09:03:19;;;;;;;5.60;1.65;;;;;;;;;;5116022;27;20047;-64
2024/01/16 09:05:44;;;;;;;6.95;1.60;;;12.50;86.20;;;;;;5115802;27;20050;-66
2024/01/16 09:08:11;;;;;;;5.75;1.67;;;12.60;86.30;;;;;;5134409;27;20059;-65
2024/01/16 09:10:37;;;;;;;6.68;1.63;;;12.50;86.20;;;;;;5115689;27;20043;-64
2024/01/16 09:13:03;;;;;;;4.97;1.70;;;;;;;;;;5134211;27;20119;-66
2024/01/16 09:15:29;;;;;;;3.72;1.50;;;;;;;;;;5133842;27;20508;-68
2024/01/16 09:17:55;;;;;;;4.50;1.50;;;12.60;86.10;;;;;;5108021;28;20048;-63
2024/01/16 09:20:21;;;;;;;5.38;1.60;;;12.60;86.30;;;;;;5132008;27;20047;-64
2024/01/16 09:22:47;;;;;;;5.05;1.55;;;12.60;83.50;;;;;;5133186;27;20096;-63
2024/01/16 09:25:13;;;;;;;5.15;1.40;;;;;;;;;;5130562;27;20182;-63
2024/01/16 09:27:39;;;;;;;3.95;1.42;;;12.50;84.00;;;;;;5109617;27;20099;-64
2024/01/16 09:30:07;;;;;;;4.95;1.65;;;12.50;86.10;;;;;;5094953;28;20498;-64
2024/01/16 09:32:34;;;;;;;5.68;1.52;;;12.60;86.10;;;;;;5105007;27;20046;-64
2024/01/16 09:35:04;;;;;;;6.22;1.70;;;12.50;86.10;;;;;;5133125;27;20396;-63
2024/01/16 09:37:30;;;;;;;6.45;1.60;;;12.60;86.10;;;;;;5129954;27;20046;-64
2024/01/16 09:39:56;;;;;;;4.57;1.67;;;12.60;86.10;;;;;;5101375;27;20044;-63
2024/01/16 09:42:22;;;;;;;6.60;1.42;;;12.60;86.20;;;;;;5126172;27;20027;-63
2024/01/16 09:44:48;;;;;;;5.75;1.88;;;12.50;86.10;;;;;;5078328;28;20047;-63
2024/01/16 09:47:14;;;;;;;4.57;1.60;;;;;;;;;;5095436;28;20036;-63
2024/01/16 09:49:40;;;;;;;6.13;1.52;;;12.50;86.10;;;;;;5124500;27;20035;-64
2024/01/16 09:52:06;;;;;;;4.30;1.45;;;12.50;86.10;;;;;;5089120;28;20051;-63
2024/01/16 09:54:32;;;;;;;3.45;1.42;;;12.50;86.00;;;;;;5100758;27;20139;-64
2024/01/16 09:56:58;;;;;;;26.35;3.47;;;12.60;86.00;;;;;;5148608;27;20042;-63
2024/01/16 09:59:25;;;;;;;21.63;4.03;;;;;;;;;;5133135;27;20473;-65
2024/01/16 10:01:52;;;;;;;122.35;71.00;;;12.60;86.20;;;;;;5121881;27;20167;-63
2024/01/16 10:04:17;;;;;;;102.78;50.88;;;12.80;86.20;;;;;;5098030;27;20043;-63
2024/01/16 10:06:46;;;;;;;76.43;33.90;;;;;;;;;;5097608;27;20050;-65
2024/01/16 10:09:13;;;;;;;72.50;38.22;;;;;;;;;;5114039;27;20043;-65
2024/01/16 10:11:39;;;;;;;67.40;35.83;;;;;;;;;;5140554;27;20043;-63
2024/01/16 10:14:05;;;;;;;90.63;47.92;;;13.40;82.40;;;;;;5116707;27;20082;-65
2024/01/16 10:16:50;;;;;;;151.27;79.10;;;;;;;;;;5151006;27;20111;-64
2024/01/16 10:19:16;;;;;;;137.23;76.78;;;14.50;84.10;;;;;;5151362;27;20082;-65
2024/01/16 10:21:43;;;;;;;122.65;83.13;;;14.70;83.60;;;;;;5117733;27;20051;-65
2024/01/16 10:24:13;;;;;;;90.43;53.65;;;;;;;;;;5127231;27;20070;-62
2024/01/16 10:26:39;;;;;;;112.68;80.72;;;15.00;79.80;;;;;;5132226;27;20038;-64
2024/01/16 10:29:05;;;;;;;90.38;70.13;;;;;;;;;;5139271;27;20047;-62
2024/01/16 10:31:31;;;;;;;97.40;78.85;;;15.50;79.40;;;;;;5132260;27;20069;-65
2024/01/16 10:33:57;;;;;;;89.50;79.97;;;15.80;81.60;;;;;;5132479;28;20047;-64
2024/01/16 10:36:25;;;;;;;87.05;78.18;;;15.90;77.20;;;;;;5115322;28;20043;-65
2024/01/16 10:38:57;;;;;;;74.22;66.47;;;16.20;80.40;;;;;;5097723;28;20479;-65
2024/01/16 10:41:26;;;;;;;70.60;62.83;;;16.40;80.00;;;;;;5089313;28;20432;-68
2024/01/16 10:44:08;;;;;;;64.38;57.42;;;;;;;;;;5104255;27;20399;-66
2024/01/16 10:46:35;;;;;;;78.90;68.00;;;16.50;77.10;;;;;;5115973;28;20534;-67
2024/01/16 10:49:02;;;;;;;60.53;53.78;;;;;;;;;;5147305;27;20129;-68
2024/01/16 10:51:28;;;;;;;67.03;49.65;;;16.50;76.30;;;;;;5128530;28;20043;-68
2024/01/16 10:53:59;;;;;;;48.53;43.28;;;16.40;76.80;;;;;;5114328;28;20396;-68
2024/01/16 10:56:27;;;;;;;46.47;41.58;;;16.70;78.60;;;;;;5102018;27;20070;-65
2024/01/16 10:59:05;;;;;;;43.53;36.38;;;;;;;;;;5127382;27;20119;-66
2024/01/16 11:01:31;;;;;;;37.15;33.38;;;16.70;79.00;;;;;;5113250;27;20054;-65
2024/01/16 11:03:59;;;;;;;32.20;28.65;;;;;;;;;;5131262;27;20047;-66
2024/01/16 11:06:24;;;;;;;32.03;27.77;;;16.80;78.90;;;;;;5133886;27;20450;-68
2024/01/16 11:08:51;;;;;;;30.13;27.10;;;;;;;;;;5130920;27;20035;-65
2024/01/16 11:11:17;;;;;;;65.45;49.67;;;16.80;79.20;;;;;;5076797;28;20077;-64
2024/01/16 11:13:44;;;;;;;47.53;38.97;;;;;;;;;;5129792;27;20082;-64
2024/01/16 11:16:13;;;;;;;37.53;32.42;;;16.90;79.20;;;;;;5131128;28;20560;-64
2024/01/16 11:18:39;;;;;;;37.47;30.95;;;;;;;;;;5107964;27;20539;-64
2024/01/16 11:21:06;;;;;;;32.63;26.75;;;;;;;;;;5151045;27;20059;-63
2024/01/16 11:23:32;;;;;;;36.38;25.88;;;17.40;78.30;;;;;;5138224;27;20047;-65
2024/01/16 11:25:59;;;;;;;33.47;25.30;;;;;;;;;;5138298;27;20612;-64
2024/01/16 11:28:31;;;;;;;48.55;28.27;;;17.60;73.90;;;;;;5153115;27;20110;-64
2024/01/16 11:30:57;;;;;;;43.88;23.20;;;17.50;78.10;;;;;;5146636;27;20046;-64
2024/01/16 11:33:32;;;;;;;51.17;23.85;;;17.30;74.10;;;;;;5150320;27;20043;-65
2024/01/16 11:35:58;;;;;;;47.08;20.33;;;17.30;78.30;;;;;;5115405;28;20086;-64
2024/01/16 11:38:26;;;;;;;37.38;19.30;;;17.30;78.00;;;;;;5115285;28;20048;-64
2024/01/16 11:40:55;;;;;;;35.30;18.10;;;17.10;78.60;;;;;;5108299;27;20122;-64
2024/01/16 11:43:36;;;;;;;29.88;16.02;;;17.10;74.90;;;;;;5146090;27;20051;-64
2024/01/16 11:46:08;;;;;;;32.58;15.32;;;16.70;76.10;;;;;;5135701;27;20048;-63
2024/01/16 11:48:34;;;;;;;31.43;14.53;;;16.80;78.80;;;;;;5117051;27;20552;-64
2024/01/16 11:51:00;;;;;;;25.27;13.98;;;16.80;78.70;;;;;;5099138;27;20043;-63
2024/01/16 11:53:38;;;;;;;23.17;13.40;;;16.90;76.10;;;;;;5135505;27;20767;-63
2024/01/16 11:56:19;;;;;;;19.67;11.77;;;;;;;;;;5135449;27;20130;-64
2024/01/16 11:59:10;;;;;;;20.10;11.30;;;16.80;74.80;;;;;;5139202;27;20046;-66
2024/01/16 12:01:36;;;;;;;19.80;10.93;;;16.90;78.90;;;;;;5135814;27;20046;-67
2024/01/16 12:04:05;;;;;;;56.28;43.15;;;16.80;76.40;;;;;;5103389;27;20047;-69
2024/01/16 12:06:31;;;;;;;43.50;32.45;;;16.70;79.10;;;;;;5156319;27;20107;-63
2024/01/16 12:09:20;;;;;;;33.65;25.20;;;;;;;;;;5147543;27;20046;-65
2024/01/16 12:12:00;;;;;;;28.98;23.05;;;16.60;77.10;;;;;;5149164;27;20043;-70
2024/01/16 12:14:27;;;;;;;28.20;21.48;;;16.50;79.80;;;;;;5100011;27;20043;-65
2024/01/16 12:16:53;;;;;;;25.50;19.35;;;16.50;80.00;;;;;;5135083;27;20050;-64
2024/01/16 12:19:19;;;;;;;22.70;17.63;;;16.60;80.20;;;;;;5135213;27;20582;-63
2024/01/16 12:21:45;;;;;;;24.25;16.58;;;;;;;;;;5112975;27;20127;-64
2024/01/16 12:24:13;;;;;;;23.10;15.75;;;;;;;;;;5112949;28;20047;-64
2024/01/16 12:26:41;;;;;;;21.70;15.20;;;16.50;80.30;;;;;;5105946;28;20164;-64
2024/01/16 12:29:07;;;;;;;18.90;13.32;;;;;;;;;;5126725;27;20066;-66
2024/01/16 12:31:33;;;;;;;15.13;11.88;;;16.60;80.80;;;;;;5133371;27;20121;-64
2024/01/16 12:34:07;;;;;;;15.50;11.75;;;16.40;77.40;;;;;;5113981;27;20131;-65
2024/01/16 12:36:33;;;;;;;14.82;10.60;;;16.70;79.80;;;;;;5112884;28;20504;-64
2024/01/16 12:38:59;;;;;;;15.70;9.95;;;16.50;81.10;;;;;;5114044;28;20051;-64
2024/01/16 12:41:26;;;;;;;12.02;9.38;;;16.60;81.20;;;;;;5111082;28;20046;-64
2024/01/16 12:43:53;;;;;;;12.52;8.35;;;;;;;;;;5127576;27;20540;-66
2024/01/16 12:46:19;;;;;;;12.45;7.72;;;16.50;81.30;;;;;;5114276;28;20092;-64
2024/01/16 12:48:47;;;;;;;11.13;7.68;;;16.60;81.40;;;;;;5113980;28;20040;-64
2024/01/16 12:51:13;;;;;;;12.35;8.15;;;;;;;;;;5111818;28;20054;-66
2024/01/16 12:53:39;;;;;;;21.98;19.75;;;;;;;;;;5124400;27;20041;-64
2024/01/16 12:56:07;;;;;;;35.15;15.63;;;16.10;81.20;;;;;;5131077;27;20135;-64
2024/01/16 12:58:34;;;;;;;24.27;12.02;;;16.40;81.40;;;;;;5124755;27;20047;-64
2024/01/16 13:01:20;;;;;;;33.95;12.07;;;16.30;78.90;;;;;;5093640;28;20048;-64
2024/01/16 13:03:46;;;;;;;19.42;10.43;;;16.20;81.10;;;;;;5116232;27;20050;-65
2024/01/16 13:06:17;;;;;;;22.15;10.18;;;16.30;81.10;;;;;;5134239;27;20039;-63
2024/01/16 13:08:43;;;;;;;22.95;9.63;;;;;;;;;;5133016;27;20055;-65
2024/01/16 13:11:09;;;;;;;18.05;8.25;;;16.60;80.90;;;;;;5134024;27;20050;-63
2024/01/16 13:13:35;;;;;;;16.77;8.30;;;16.40;80.90;;;;;;5132473;27;20043;-63
2024/01/16 13:16:02;;;;;;;13.48;6.88;;;;;;;;;;5117015;27;20072;-65
2024/01/16 13:18:28;;;;;;;13.32;7.50;;;16.70;78.20;;;;;;5092014;28;20097;-62
2024/01/16 13:20:56;;;;;;;18.98;7.40;;;16.60;81.70;;;;;;5103553;28;20134;-64